DLH3W EDDF-KIAD
Flight info
| Callsign | DLH3W |
|---|---|
| Flight time | N/A |
| Altitude | 36000 |
| Route | OBOKA3M OBOKA Z29 TORNU DCT BATAK DCT GALSO Q63 ERING L179 UGBET Q60 OKSAW DCT BIBPE DCT FELCA DCT FADZU DCT OFSOX DCT SLANY DCT TOBOR/M083F370 NATC ELSIR/N0466F380 N402C ALLEX DCT KAYCC DCT KYLOH DCT BAF HYPER9 |
| Aircraft | A346/H-SDE2E3FGHIJ3J4J5M1RWXY/LB1D1 |
Departure
| Time | 2026-05-06 10:30 |
|---|---|
| Airport | Frankfurt Main Airport (EDDF) |
Arrival
| Time | N/A |
|---|---|
| Airport | Washington Dulles International Airport (KIAD) |
| Time | Latitude | Longitude | Altitude | Speed | Heading |
|---|---|---|---|---|---|
| 2026-05-06 10:09 | 50.04586 | 8.56603 | 364 ft | 0 kts | 114° |
| 2026-05-06 10:19 | 50.04585 | 8.56603 | 364 ft | 0 kts | 115° |
| 2026-05-06 10:19 | 50.04588 | 8.56593 | 369 ft | 0 kts | 115° |
| 2026-05-06 10:20 | 50.04599 | 8.56558 | 368 ft | 0 kts | 115° |
| 2026-05-06 10:20 | 50.04610 | 8.56520 | 369 ft | 0 kts | 115° |
| 2026-05-06 10:20 | 50.04622 | 8.56492 | 368 ft | 0 kts | 141° |
| 2026-05-06 10:20 | 50.04638 | 8.56484 | 370 ft | 0 kts | 181° |
| 2026-05-06 10:21 | 50.04642 | 8.56484 | 370 ft | 0 kts | 184° |
| 2026-05-06 10:21 | 50.04639 | 8.56484 | 370 ft | 3 kts | 185° |
| 2026-05-06 10:22 | 50.04608 | 8.56472 | 368 ft | 4 kts | 201° |
| 2026-05-06 10:22 | 50.04585 | 8.56460 | 369 ft | 2 kts | 199° |
| 2026-05-06 10:22 | 50.04570 | 8.56451 | 370 ft | 3 kts | 201° |
| 2026-05-06 10:22 | 50.04547 | 8.56435 | 366 ft | 4 kts | 208° |
| 2026-05-06 10:23 | 50.04524 | 8.56407 | 368 ft | 4 kts | 228° |
| 2026-05-06 10:23 | 50.04510 | 8.56369 | 369 ft | 5 kts | 250° |
| 2026-05-06 10:23 | 50.04496 | 8.56309 | 366 ft | 7 kts | 250° |
| 2026-05-06 10:23 | 50.04476 | 8.56225 | 368 ft | 9 kts | 250° |
| 2026-05-06 10:24 | 50.04451 | 8.56118 | 368 ft | 11 kts | 250° |
| 2026-05-06 10:24 | 50.04400 | 8.56029 | 370 ft | 11 kts | 188° |
| 2026-05-06 10:24 | 50.04317 | 8.56074 | 366 ft | 14 kts | 150° |
| 2026-05-06 10:24 | 50.04280 | 8.56205 | 366 ft | 13 kts | 124° |
| 2026-05-06 10:25 | 50.04188 | 8.56270 | 368 ft | 16 kts | 157° |
| 2026-05-06 10:25 | 50.04157 | 8.56400 | 367 ft | 14 kts | 71° |
| 2026-05-06 10:25 | 50.04191 | 8.56549 | 367 ft | 15 kts | 70° |
| 2026-05-06 10:25 | 50.04227 | 8.56700 | 371 ft | 15 kts | 69° |
| 2026-05-06 10:26 | 50.04263 | 8.56849 | 372 ft | 15 kts | 69° |
| 2026-05-06 10:26 | 50.04300 | 8.57004 | 373 ft | 16 kts | 69° |
| 2026-05-06 10:26 | 50.04338 | 8.57162 | 372 ft | 16 kts | 70° |
| 2026-05-06 10:26 | 50.04378 | 8.57328 | 371 ft | 17 kts | 70° |
| 2026-05-06 10:27 | 50.04420 | 8.57507 | 372 ft | 19 kts | 70° |
| 2026-05-06 10:27 | 50.04466 | 8.57701 | 376 ft | 20 kts | 70° |
| 2026-05-06 10:27 | 50.04517 | 8.57915 | 377 ft | 22 kts | 69° |
| 2026-05-06 10:27 | 50.04574 | 8.58150 | 376 ft | 24 kts | 69° |
| 2026-05-06 10:28 | 50.04632 | 8.58393 | 379 ft | 24 kts | 69° |
| 2026-05-06 10:28 | 50.04692 | 8.58647 | 380 ft | 23 kts | 77° |
| 2026-05-06 10:28 | 50.04617 | 8.58742 | 380 ft | 15 kts | 191° |
| 2026-05-06 10:28 | 50.04529 | 8.58658 | 381 ft | 15 kts | 196° |
| 2026-05-06 10:29 | 50.04479 | 8.58554 | 381 ft | 13 kts | 250° |
| 2026-05-06 10:29 | 50.04400 | 8.58222 | 379 ft | 60 kts | 249° |
| 2026-05-06 10:29 | 50.04189 | 8.57341 | 377 ft | 111 kts | 250° |
| 2026-05-06 10:29 | 50.03860 | 8.55977 | 364 ft | 155 kts | 249° |
| 2026-05-06 10:30 | 50.03450 | 8.54204 | 415 ft | 184 kts | 248° |
| 2026-05-06 10:30 | 50.03000 | 8.52329 | 847 ft | 185 kts | 246° |
| 2026-05-06 10:30 | 50.02460 | 8.50533 | 1381 ft | 182 kts | 228° |
| 2026-05-06 10:30 | 50.01422 | 8.49518 | 1840 ft | 183 kts | 200° |
| 2026-05-06 10:31 | 50.00193 | 8.48954 | 2243 ft | 187 kts | 199° |
| 2026-05-06 10:31 | 49.98915 | 8.48367 | 2537 ft | 195 kts | 199° |
| 2026-05-06 10:31 | 49.97598 | 8.47761 | 3029 ft | 199 kts | 199° |
| 2026-05-06 10:31 | 49.96266 | 8.47149 | 3553 ft | 200 kts | 199° |
| 2026-05-06 10:32 | 49.94906 | 8.46518 | 3971 ft | 210 kts | 199° |
| 2026-05-06 10:32 | 49.93446 | 8.45846 | 4262 ft | 226 kts | 199° |
| 2026-05-06 10:32 | 49.91936 | 8.44955 | 4577 ft | 237 kts | 215° |
| 2026-05-06 10:32 | 49.90771 | 8.43188 | 5132 ft | 235 kts | 238° |
| 2026-05-06 10:33 | 49.89922 | 8.41029 | 5789 ft | 235 kts | 239° |
| 2026-05-06 10:33 | 49.89098 | 8.38825 | 6429 ft | 237 kts | 245° |
| 2026-05-06 10:33 | 49.88634 | 8.36358 | 7044 ft | 242 kts | 263° |
| 2026-05-06 10:33 | 49.88649 | 8.33672 | 7494 ft | 258 kts | 272° |
| 2026-05-06 10:34 | 49.88805 | 8.30818 | 7998 ft | 269 kts | 273° |
| 2026-05-06 10:34 | 49.89050 | 8.27909 | 8703 ft | 275 kts | 282° |
| 2026-05-06 10:34 | 49.89770 | 8.25133 | 9454 ft | 281 kts | 298° |
| 2026-05-06 10:34 | 49.90889 | 8.22613 | 10128 ft | 287 kts | 303° |
| 2026-05-06 10:35 | 49.92112 | 8.20070 | 10500 ft | 302 kts | 303° |
| 2026-05-06 10:35 | 49.93447 | 8.17431 | 10828 ft | 320 kts | 307° |
| 2026-05-06 10:35 | 49.95006 | 8.14835 | 11127 ft | 337 kts | 313° |
| 2026-05-06 10:35 | 49.96795 | 8.12327 | 11418 ft | 354 kts | 316° |
| 2026-05-06 10:36 | 49.98706 | 8.09776 | 11704 ft | 369 kts | 317° |
| 2026-05-06 10:36 | 50.00699 | 8.07135 | 12009 ft | 382 kts | 317° |
| 2026-05-06 10:36 | 50.02739 | 8.04425 | 12530 ft | 387 kts | 317° |
| 2026-05-06 10:36 | 50.04793 | 8.01690 | 13142 ft | 390 kts | 317° |
| 2026-05-06 10:37 | 50.06825 | 7.98973 | 13706 ft | 393 kts | 317° |
| 2026-05-06 10:37 | 50.08938 | 7.96140 | 14230 ft | 397 kts | 317° |
| 2026-05-06 10:37 | 50.10329 | 7.94271 | 14603 ft | 400 kts | 317° |
| 2026-05-06 10:37 | 50.12443 | 7.91427 | 15217 ft | 403 kts | 317° |
| 2026-05-06 10:38 | 50.14572 | 7.88559 | 15832 ft | 406 kts | 317° |
| 2026-05-06 10:38 | 50.16722 | 7.85662 | 16427 ft | 410 kts | 316° |
| 2026-05-06 10:38 | 50.18884 | 7.82738 | 17041 ft | 413 kts | 316° |
| 2026-05-06 10:38 | 50.21775 | 7.78824 | 17826 ft | 417 kts | 316° |
| 2026-05-06 10:39 | 50.24042 | 7.75940 | 18366 ft | 423 kts | 321° |
| 2026-05-06 10:39 | 50.25688 | 7.74177 | 18721 ft | 426 kts | 325° |
| 2026-05-06 10:39 | 50.28287 | 7.71888 | 19242 ft | 432 kts | 331° |
| 2026-05-06 10:39 | 50.31045 | 7.69905 | 19765 ft | 435 kts | 333° |
| 2026-05-06 10:40 | 50.33836 | 7.68018 | 20270 ft | 439 kts | 334° |
| 2026-05-06 10:40 | 50.36652 | 7.66125 | 20778 ft | 442 kts | 334° |
| 2026-05-06 10:40 | 50.39486 | 7.64199 | 21276 ft | 445 kts | 333° |
| 2026-05-06 10:40 | 50.42335 | 7.62248 | 21771 ft | 448 kts | 333° |
| 2026-05-06 10:41 | 50.45199 | 7.60277 | 22289 ft | 451 kts | 333° |
| 2026-05-06 10:41 | 50.48047 | 7.58314 | 22761 ft | 454 kts | 333° |
| 2026-05-06 10:41 | 50.50951 | 7.56309 | 23235 ft | 458 kts | 333° |
| 2026-05-06 10:41 | 50.53848 | 7.54213 | 23657 ft | 459 kts | 330° |
| 2026-05-06 10:42 | 50.56677 | 7.51870 | 24083 ft | 460 kts | 327° |
| 2026-05-06 10:42 | 50.59427 | 7.49272 | 24500 ft | 461 kts | 324° |
| 2026-05-06 10:42 | 50.62131 | 7.46536 | 24882 ft | 462 kts | 323° |
| 2026-05-06 10:42 | 50.64821 | 7.43739 | 25275 ft | 464 kts | 326° |
| 2026-05-06 10:43 | 50.67525 | 7.40928 | 25700 ft | 466 kts | 326° |
| 2026-05-06 10:43 | 50.70251 | 7.38127 | 26085 ft | 469 kts | 326° |
| 2026-05-06 10:43 | 50.72830 | 7.34953 | 26418 ft | 471 kts | 316° |
| 2026-05-06 10:44 | 50.76818 | 7.26746 | 27190 ft | 473 kts | 298° |
| 2026-05-06 10:44 | 50.78359 | 7.22123 | 27557 ft | 476 kts | 296° |
| 2026-05-06 10:44 | 50.79864 | 7.17428 | 27885 ft | 480 kts | 296° |
| 2026-05-06 10:44 | 50.81367 | 7.12713 | 28329 ft | 480 kts | 296° |
| 2026-05-06 10:45 | 50.82874 | 7.08008 | 28864 ft | 477 kts | 296° |
| 2026-05-06 10:45 | 50.84379 | 7.03330 | 29345 ft | 476 kts | 297° |
| 2026-05-06 10:45 | 50.85881 | 6.98668 | 29732 ft | 476 kts | 297° |
| 2026-05-06 10:45 | 50.87392 | 6.93992 | 30138 ft | 476 kts | 297° |
| 2026-05-06 10:46 | 50.88899 | 6.89330 | 30589 ft | 474 kts | 297° |
| 2026-05-06 10:46 | 50.90399 | 6.84676 | 31058 ft | 473 kts | 296° |
| 2026-05-06 10:46 | 50.91895 | 6.80021 | 31482 ft | 473 kts | 296° |
| 2026-05-06 10:46 | 50.93384 | 6.75373 | 31905 ft | 472 kts | 296° |
| 2026-05-06 10:47 | 50.94864 | 6.70738 | 32354 ft | 470 kts | 295° |
| 2026-05-06 10:47 | 50.96337 | 6.66117 | 32787 ft | 468 kts | 295° |
| 2026-05-06 10:47 | 50.97806 | 6.61504 | 33189 ft | 467 kts | 295° |
| 2026-05-06 10:47 | 50.99265 | 6.56906 | 33621 ft | 466 kts | 295° |
| 2026-05-06 10:48 | 51.00718 | 6.52320 | 34029 ft | 463 kts | 294° |
| 2026-05-06 10:48 | 51.02145 | 6.47809 | 34313 ft | 463 kts | 294° |
| 2026-05-06 10:48 | 51.03592 | 6.43223 | 34515 ft | 465 kts | 294° |
| 2026-05-06 10:48 | 51.05064 | 6.38551 | 34699 ft | 467 kts | 294° |
| 2026-05-06 10:49 | 51.06522 | 6.33917 | 34900 ft | 468 kts | 294° |
| 2026-05-06 10:49 | 51.07962 | 6.29336 | 35139 ft | 469 kts | 294° |
| 2026-05-06 10:49 | 51.09422 | 6.24677 | 35363 ft | 471 kts | 294° |
| 2026-05-06 10:49 | 51.10884 | 6.20004 | 35566 ft | 472 kts | 294° |
| 2026-05-06 10:50 | 51.12297 | 6.15272 | 35767 ft | 472 kts | 291° |
| 2026-05-06 10:50 | 51.14631 | 6.05484 | 35821 ft | 471 kts | 285° |
| 2026-05-06 10:51 | 51.16392 | 5.95415 | 35829 ft | 471 kts | 284° |
| 2026-05-06 10:51 | 51.18472 | 5.85477 | 35836 ft | 473 kts | 289° |
| 2026-05-06 10:52 | 51.21207 | 5.75905 | 35850 ft | 475 kts | 296° |
| 2026-05-06 10:52 | 51.24516 | 5.66740 | 35855 ft | 476 kts | 299° |
| 2026-05-06 10:53 | 51.27943 | 5.57675 | 35850 ft | 476 kts | 299° |
| 2026-05-06 10:53 | 51.31360 | 5.48594 | 35857 ft | 476 kts | 299° |
| 2026-05-06 10:54 | 51.34764 | 5.39493 | 35856 ft | 476 kts | 299° |
| 2026-05-06 10:54 | 51.38157 | 5.30381 | 35856 ft | 476 kts | 299° |
| 2026-05-06 10:55 | 51.41543 | 5.21258 | 35860 ft | 476 kts | 299° |
| 2026-05-06 10:55 | 51.44919 | 5.12120 | 35852 ft | 475 kts | 299° |
| 2026-05-06 10:56 | 51.48296 | 5.02974 | 35858 ft | 475 kts | 299° |
| 2026-05-06 10:56 | 51.51628 | 4.93909 | 35855 ft | 474 kts | 298° |
| 2026-05-06 10:57 | 51.54647 | 4.84500 | 35859 ft | 473 kts | 291° |
| 2026-05-06 10:57 | 51.56973 | 4.74630 | 35854 ft | 470 kts | 286° |
| 2026-05-06 10:58 | 51.58589 | 4.64450 | 35871 ft | 469 kts | 279° |
| 2026-05-06 10:58 | 51.59346 | 4.57540 | 35868 ft | 469 kts | 278° |